createdAt,value
2018-08-19T00:02:10.845Z,14.20
2018-08-19T00:04:40.067Z,14.10
2018-08-19T00:07:09.173Z,14.10
2018-08-19T00:09:38.125Z,14.00
2018-08-19T00:12:07.348Z,14.10
2018-08-19T00:14:37.060Z,14.10
2018-08-19T00:17:07.042Z,14.10
2018-08-19T00:19:36.399Z,14.10
2018-08-19T00:22:05.936Z,14.00
2018-08-19T00:24:35.288Z,13.90
2018-08-19T00:27:04.391Z,13.90
2018-08-19T00:29:37.479Z,14.00
2018-08-19T00:32:07.225Z,14.00
2018-08-19T00:34:36.532Z,13.80
2018-08-19T00:37:06.984Z,13.70
2018-08-19T00:39:36.020Z,13.60
2018-08-19T00:42:05.383Z,13.60
2018-08-19T00:44:34.725Z,13.80
2018-08-19T00:47:04.222Z,13.80
2018-08-19T00:49:33.948Z,13.80
2018-08-19T00:52:03.528Z,13.80
2018-08-19T00:54:33.011Z,13.70
2018-08-19T00:57:02.442Z,13.70
2018-08-19T00:59:32.760Z,13.70
2018-08-19T01:02:02.422Z,13.70
2018-08-19T01:04:31.854Z,13.60
2018-08-19T01:07:01.447Z,13.60
2018-08-19T01:09:31.780Z,13.70
2018-08-19T01:12:00.796Z,13.50
2018-08-19T01:14:29.984Z,13.50
2018-08-19T01:16:59.118Z,13.50
2018-08-19T01:19:28.472Z,13.60
2018-08-19T01:21:58.009Z,13.50
2018-08-19T01:24:27.220Z,13.50
2018-08-19T01:26:56.809Z,13.50
2018-08-19T01:29:37.450Z,13.50
2018-08-19T01:32:11.370Z,13.20
2018-08-19T01:34:43.747Z,13.20
2018-08-19T01:37:13.592Z,13.20
2018-08-19T01:39:42.811Z,13.20
2018-08-19T01:42:12.970Z,13.30
2018-08-19T01:44:43.044Z,13.20
2018-08-19T01:47:12.174Z,13.30
2018-08-19T01:49:41.216Z,13.20
2018-08-19T01:52:10.408Z,13.30
2018-08-19T01:54:39.665Z,13.30
2018-08-19T01:57:09.101Z,13.30
2018-08-19T01:59:38.340Z,13.30
2018-08-19T02:02:07.887Z,13.30
2018-08-19T02:04:45.277Z,13.20
2018-08-19T02:07:15.948Z,13.30
2018-08-19T02:09:58.674Z,13.30
2018-08-19T02:12:35.255Z,13.20
2018-08-19T02:15:04.788Z,13.20
2018-08-19T02:17:37.627Z,13.00
2018-08-19T02:20:07.138Z,13.00
2018-08-19T02:22:36.560Z,13.10
2018-08-19T02:25:05.759Z,13.10
2018-08-19T02:27:35.248Z,13.00
2018-08-19T02:30:04.377Z,12.80
2018-08-19T02:32:34.135Z,12.80
2018-08-19T02:35:03.359Z,12.90
2018-08-19T02:37:32.305Z,12.90
2018-08-19T02:40:03.011Z,12.90
2018-08-19T02:42:33.620Z,12.80
2018-08-19T02:45:05.401Z,12.80
2018-08-19T02:47:35.283Z,12.70
2018-08-19T02:50:04.835Z,12.70
2018-08-19T02:52:35.875Z,12.60
2018-08-19T02:55:06.292Z,12.50
2018-08-19T02:57:38.177Z,12.50
2018-08-19T03:00:07.960Z,12.60
2018-08-19T03:02:38.579Z,12.70
2018-08-19T03:05:09.947Z,12.70
2018-08-19T03:07:39.167Z,12.80
2018-08-19T03:10:15.872Z,12.70
2018-08-19T03:12:45.571Z,12.60
2018-08-19T03:15:16.003Z,12.70
2018-08-19T03:17:47.652Z,12.70
2018-08-19T03:20:16.840Z,12.70
2018-08-19T03:22:45.857Z,12.50
2018-08-19T03:25:15.340Z,12.50
2018-08-19T03:27:44.596Z,12.60
2018-08-19T03:30:15.641Z,12.60
2018-08-19T03:32:50.334Z,12.60
2018-08-19T03:35:21.070Z,12.60
2018-08-19T03:37:52.284Z,12.60
2018-08-19T03:40:21.214Z,12.60
2018-08-19T03:42:50.488Z,12.40
2018-08-19T03:45:20.957Z,12.50
2018-08-19T03:47:51.307Z,12.50
2018-08-19T03:50:25.705Z,12.40
2018-08-19T03:52:55.891Z,12.40
2018-08-19T03:55:28.861Z,12.40
2018-08-19T03:58:04.823Z,12.40
2018-08-19T04:00:35.978Z,12.40
2018-08-19T04:03:15.308Z,12.40
2018-08-19T04:05:49.624Z,12.50
2018-08-19T04:08:18.552Z,12.40
2018-08-19T04:10:48.460Z,12.50
2018-08-19T04:13:38.651Z,12.40
2018-08-19T04:16:08.946Z,12.40
2018-08-19T04:18:39.282Z,12.50
2018-08-19T04:21:10.419Z,12.60
2018-08-19T04:23:42.307Z,12.60
2018-08-19T04:26:11.608Z,12.70
2018-08-19T04:28:42.668Z,12.80
2018-08-19T04:31:17.194Z,12.90
2018-08-19T04:33:47.376Z,12.90
2018-08-19T04:36:17.975Z,13.00
2018-08-19T04:38:47.203Z,13.00
2018-08-19T04:41:16.648Z,13.00
2018-08-19T04:43:46.671Z,13.00
2018-08-19T04:46:16.083Z,13.10
2018-08-19T04:48:46.880Z,13.10
2018-08-19T04:51:16.300Z,13.10
2018-08-19T04:53:45.450Z,13.20
2018-08-19T04:56:14.561Z,13.20
2018-08-19T04:58:43.860Z,13.30
2018-08-19T05:01:13.756Z,13.30
2018-08-19T05:03:44.579Z,13.40
2018-08-19T05:06:14.674Z,13.40
2018-08-19T05:08:43.731Z,13.50
2018-08-19T05:11:12.955Z,13.60
2018-08-19T05:13:42.052Z,13.70
2018-08-19T05:16:11.304Z,13.80
2018-08-19T05:18:41.159Z,14.00
2018-08-19T05:21:14.405Z,14.10
2018-08-19T05:23:43.564Z,14.30
2018-08-19T05:26:13.562Z,14.40
2018-08-19T05:28:45.553Z,14.50
2018-08-19T05:31:14.877Z,14.70
2018-08-19T05:33:44.234Z,14.80
2018-08-19T05:36:13.674Z,14.90
2018-08-19T05:38:44.572Z,14.90
2018-08-19T05:41:13.952Z,15.10
2018-08-19T05:43:43.290Z,15.20
2018-08-19T05:46:12.534Z,15.30
2018-08-19T05:48:41.851Z,15.40
2018-08-19T05:51:11.170Z,15.60
2018-08-19T05:53:44.674Z,15.70
2018-08-19T05:56:14.112Z,15.90
2018-08-19T05:58:43.317Z,15.90
2018-08-19T06:01:16.641Z,16.00
2018-08-19T06:03:46.552Z,16.10
2018-08-19T06:06:16.098Z,16.30
2018-08-19T06:08:45.814Z,16.40
2018-08-19T06:11:15.345Z,16.50
2018-08-19T06:13:44.889Z,16.50
2018-08-19T06:16:14.229Z,16.60
2018-08-19T06:18:43.553Z,16.80
2018-08-19T06:21:12.814Z,17.00
2018-08-19T06:23:42.100Z,17.10
2018-08-19T06:26:11.417Z,17.30
2018-08-19T06:28:40.965Z,17.40
2018-08-19T06:31:10.320Z,17.50
2018-08-19T06:33:39.352Z,17.60
2018-08-19T06:36:08.953Z,17.80
2018-08-19T06:38:38.248Z,17.90
2018-08-19T06:41:07.522Z,18.10
2018-08-19T06:43:37.072Z,18.30
2018-08-19T06:46:06.489Z,18.40
2018-08-19T06:48:35.951Z,18.50
2018-08-19T06:51:05.797Z,18.70
2018-08-19T06:53:34.972Z,18.90
2018-08-19T06:56:04.239Z,19.10
2018-08-19T06:58:33.498Z,19.20
2018-08-19T07:01:02.507Z,19.40
2018-08-19T07:03:32.310Z,19.50
2018-08-19T07:06:07.206Z,19.50
2018-08-19T07:08:36.365Z,19.80
2018-08-19T07:11:05.981Z,20.10
2018-08-19T07:13:35.450Z,20.20
2018-08-19T07:16:04.773Z,20.30
2018-08-19T07:18:35.041Z,20.40
2018-08-19T07:21:04.301Z,20.50
2018-08-19T07:23:33.602Z,20.70
2018-08-19T07:26:02.976Z,21.00
2018-08-19T07:28:32.305Z,21.10
2018-08-19T07:31:01.439Z,21.30
2018-08-19T07:33:30.729Z,21.50
2018-08-19T07:35:59.812Z,21.80
2018-08-19T07:38:29.475Z,21.80
2018-08-19T07:40:58.830Z,21.90
2018-08-19T07:43:28.461Z,22.00
2018-08-19T07:45:57.580Z,22.20
2018-08-19T07:48:27.074Z,22.30
2018-08-19T07:50:56.582Z,22.40
2018-08-19T07:53:25.696Z,22.70
2018-08-19T07:55:55.202Z,23.00
2018-08-19T07:58:35.437Z,23.10
2018-08-19T08:01:04.517Z,23.50
2018-08-19T08:03:33.967Z,23.60
2018-08-19T08:06:03.561Z,23.80
2018-08-19T08:08:32.885Z,23.90
2018-08-19T08:11:02.303Z,23.80
2018-08-19T08:13:31.584Z,23.90
2018-08-19T08:16:01.741Z,24.10
2018-08-19T08:18:30.950Z,24.10
2018-08-19T08:21:04.445Z,24.30
2018-08-19T08:23:33.620Z,24.40
2018-08-19T08:26:02.702Z,24.70
2018-08-19T08:28:32.485Z,25.00
2018-08-19T08:31:02.043Z,25.10
2018-08-19T08:33:31.303Z,25.40
2018-08-19T08:36:01.017Z,25.50
2018-08-19T08:38:30.578Z,25.70
2018-08-19T08:41:00.253Z,25.90
2018-08-19T08:43:29.684Z,26.30
2018-08-19T08:45:58.926Z,26.40
2018-08-19T08:48:28.684Z,26.30
2018-08-19T08:50:58.021Z,26.10
2018-08-19T08:53:36.684Z,26.00
2018-08-19T08:56:06.920Z,26.00
2018-08-19T08:58:36.125Z,26.50
2018-08-19T09:01:05.235Z,26.60
2018-08-19T09:03:34.761Z,26.50
2018-08-19T09:06:04.549Z,26.70
2018-08-19T09:08:34.030Z,26.60
2018-08-19T09:11:05.137Z,26.80
2018-08-19T09:13:34.200Z,27.20
2018-08-19T09:16:03.428Z,26.90
2018-08-19T09:18:32.624Z,26.90
2018-08-19T09:21:02.120Z,27.00
2018-08-19T09:23:31.542Z,27.40
2018-08-19T09:26:00.871Z,27.70
2018-08-19T09:28:30.128Z,28.00
2018-08-19T09:30:59.435Z,27.60
2018-08-19T09:33:28.615Z,27.80
2018-08-19T09:35:57.825Z,27.80
2018-08-19T09:38:27.060Z,28.00
2018-08-19T09:40:56.477Z,27.70
2018-08-19T09:43:25.712Z,27.80
2018-08-19T09:45:55.001Z,27.90
2018-08-19T09:48:24.959Z,28.40
2018-08-19T09:50:57.342Z,28.00
2018-08-19T09:53:26.706Z,28.20
2018-08-19T09:56:01.476Z,28.30
2018-08-19T09:58:30.924Z,28.20
2018-08-19T10:01:05.523Z,28.20
2018-08-19T10:03:34.890Z,28.40
2018-08-19T10:06:04.338Z,28.20
2018-08-19T10:08:33.728Z,28.00
2018-08-19T10:11:02.899Z,27.70
2018-08-19T10:13:32.596Z,27.70
2018-08-19T10:16:02.097Z,27.90
2018-08-19T10:18:32.307Z,28.60
2018-08-19T10:21:05.993Z,28.90
2018-08-19T10:23:35.571Z,28.70
2018-08-19T10:26:05.090Z,28.60
2018-08-19T10:28:34.454Z,27.80
2018-08-19T10:31:06.638Z,28.70
2018-08-19T10:33:37.158Z,28.90
2018-08-19T10:36:07.235Z,28.90
2018-08-19T10:38:36.715Z,28.60
2018-08-19T10:41:06.261Z,28.80
2018-08-19T10:43:35.883Z,29.20
2018-08-19T10:46:05.298Z,29.50
2018-08-19T10:48:35.552Z,29.70
2018-08-19T10:51:04.946Z,29.30
2018-08-19T10:53:34.030Z,29.40
2018-08-19T10:56:04.990Z,29.60
2018-08-19T10:58:34.444Z,29.40
2018-08-19T11:01:03.608Z,29.70
2018-08-19T11:03:33.046Z,29.20
2018-08-19T11:06:02.189Z,29.50
2018-08-19T11:08:32.198Z,29.10
2018-08-19T11:11:01.616Z,28.00
2018-08-19T11:13:32.820Z,28.60
2018-08-19T11:16:03.253Z,29.00
2018-08-19T11:18:38.484Z,28.70
2018-08-19T11:21:10.452Z,29.60
2018-08-19T11:23:42.257Z,29.90
2018-08-19T11:26:11.698Z,29.80
2018-08-19T11:28:53.201Z,29.80
2018-08-19T11:31:27.733Z,29.90
2018-08-19T11:33:58.963Z,30.40
2018-08-19T11:36:34.405Z,30.70
2018-08-19T11:39:04.932Z,30.70
2018-08-19T11:41:34.655Z,30.60
2018-08-19T11:44:06.966Z,30.60
2018-08-19T11:46:36.124Z,31.00
2018-08-19T11:49:10.270Z,30.20
2018-08-19T11:52:00.840Z,30.60
2018-08-19T11:54:31.106Z,30.60
2018-08-19T11:57:07.646Z,30.70
2018-08-19T11:59:38.823Z,30.00
2018-08-19T12:02:10.902Z,29.10
2018-08-19T12:04:40.895Z,29.70
2018-08-19T12:07:10.324Z,30.10
2018-08-19T12:09:43.611Z,30.50
2018-08-19T12:12:13.893Z,29.70
2018-08-19T12:14:43.923Z,30.10
2018-08-19T12:17:13.366Z,30.10
2018-08-19T12:19:43.868Z,29.30
2018-08-19T12:22:13.043Z,28.60
2018-08-19T12:24:47.224Z,28.90
2018-08-19T12:27:17.704Z,28.50
2018-08-19T12:29:47.875Z,29.60
2018-08-19T12:35:02.505Z,30.00
2018-08-19T12:37:33.004Z,29.90
2018-08-19T12:40:02.451Z,29.90
2018-08-19T12:42:33.299Z,29.70
2018-08-19T12:45:07.602Z,30.00
2018-08-19T12:47:37.315Z,30.40
2018-08-19T12:50:12.025Z,30.40
2018-08-19T12:52:41.052Z,30.30
2018-08-19T12:55:11.769Z,30.50
2018-08-19T12:57:42.074Z,30.50
2018-08-19T13:00:16.985Z,29.40
2018-08-19T13:02:47.825Z,29.80
2018-08-19T13:05:17.767Z,30.20
2018-08-19T13:07:47.029Z,30.10
2018-08-19T13:10:16.688Z,30.70
2018-08-19T13:13:03.235Z,31.00
2018-08-19T13:15:32.538Z,29.80
2018-08-19T13:18:01.583Z,30.20
2018-08-19T13:20:30.791Z,29.80
2018-08-19T13:23:01.314Z,30.20
2018-08-19T13:25:31.086Z,30.30
2018-08-19T13:28:00.209Z,29.70
2018-08-19T13:30:29.536Z,29.60
2018-08-19T13:32:59.452Z,29.20
2018-08-19T13:35:28.895Z,29.60
2018-08-19T13:37:58.108Z,29.90
2018-08-19T13:40:27.592Z,29.90
2018-08-19T13:42:56.839Z,29.60
2018-08-19T13:45:27.442Z,29.70
2018-08-19T13:47:56.785Z,29.60
2018-08-19T13:50:26.116Z,29.90
2018-08-19T13:52:55.415Z,30.10
2018-08-19T13:55:24.677Z,30.20
2018-08-19T13:57:53.881Z,30.00
2018-08-19T14:00:24.093Z,30.10
2018-08-19T14:02:53.662Z,29.70
2018-08-19T14:05:23.439Z,29.50
2018-08-19T14:07:52.657Z,29.40
2018-08-19T14:10:21.868Z,29.80
2018-08-19T14:12:51.022Z,29.70
2018-08-19T14:15:20.468Z,29.30
2018-08-19T14:17:49.746Z,29.30
2018-08-19T14:20:18.942Z,29.20
2018-08-19T14:22:48.312Z,29.20
2018-08-19T14:25:17.796Z,29.60
2018-08-19T14:27:46.829Z,29.50
2018-08-19T14:30:16.480Z,29.50
2018-08-19T14:32:47.152Z,29.60
2018-08-19T14:35:16.902Z,29.90
2018-08-19T14:37:46.115Z,29.70
2018-08-19T14:40:17.520Z,29.70
2018-08-19T14:42:46.661Z,29.70
2018-08-19T14:45:15.814Z,29.50
2018-08-19T14:47:44.984Z,29.20
2018-08-19T14:50:15.769Z,28.70
2018-08-19T14:52:56.327Z,28.50
2018-08-19T14:55:26.007Z,28.30
2018-08-19T14:57:57.804Z,28.80
2018-08-19T15:00:27.200Z,29.00
2018-08-19T15:02:56.453Z,28.90
2018-08-19T15:05:26.582Z,28.30
2018-08-19T15:07:56.653Z,28.50
2018-08-19T15:10:26.547Z,28.60
2018-08-19T15:12:56.212Z,28.40
2018-08-19T15:15:26.794Z,28.20
2018-08-19T15:18:00.958Z,28.10
2018-08-19T15:20:33.661Z,28.10
2018-08-19T15:23:20.396Z,28.00
2018-08-19T15:25:50.223Z,28.20
2018-08-19T15:28:19.932Z,28.20
2018-08-19T15:30:49.449Z,28.30
2018-08-19T15:33:18.987Z,28.30
2018-08-19T15:35:48.244Z,28.30
2018-08-19T15:38:17.730Z,28.30
2018-08-19T15:40:48.660Z,28.10
2018-08-19T15:43:25.773Z,28.10
2018-08-19T15:46:04.480Z,28.20
2018-08-19T15:48:33.944Z,27.60
2018-08-19T15:51:09.885Z,27.50
2018-08-19T15:53:39.072Z,27.40
2018-08-19T15:56:08.468Z,27.30
2018-08-19T15:58:42.824Z,27.10
2018-08-19T16:01:29.763Z,26.70
2018-08-19T16:04:04.724Z,26.10
2018-08-19T16:06:33.927Z,25.90
2018-08-19T16:09:03.259Z,25.70
2018-08-19T16:11:32.491Z,25.60
2018-08-19T16:14:02.680Z,25.40
2018-08-19T16:16:31.816Z,25.20
2018-08-19T16:19:02.930Z,24.80
2018-08-19T16:21:32.530Z,24.70
2018-08-19T16:24:03.138Z,23.90
2018-08-19T16:26:32.705Z,24.00
2018-08-19T16:29:02.001Z,23.70
2018-08-19T16:31:31.492Z,23.60
2018-08-19T16:34:01.198Z,23.40
2018-08-19T16:36:30.420Z,23.20
2018-08-19T16:38:59.727Z,23.10
2018-08-19T16:41:29.509Z,23.30
2018-08-19T16:43:59.542Z,23.00
2018-08-19T16:46:29.689Z,22.80
2018-08-19T16:49:00.280Z,22.60
2018-08-19T16:51:29.399Z,22.50
2018-08-19T16:53:58.610Z,22.40
2018-08-19T16:56:28.777Z,22.40
2018-08-19T16:58:57.975Z,22.50
2018-08-19T17:01:27.432Z,22.50
2018-08-19T17:03:56.773Z,22.40
2018-08-19T17:06:27.185Z,22.10
2018-08-19T17:08:57.105Z,22.00
2018-08-19T17:11:26.460Z,21.90
2018-08-19T17:13:55.729Z,21.70
2018-08-19T17:16:25.759Z,21.60
2018-08-19T17:18:55.103Z,21.50
2018-08-19T17:21:25.120Z,21.50
2018-08-19T17:23:55.252Z,21.60
2018-08-19T17:26:25.323Z,21.60
2018-08-19T17:28:54.779Z,21.50
2018-08-19T17:31:23.915Z,21.50
2018-08-19T17:33:54.716Z,21.50
2018-08-19T17:36:33.440Z,21.40
2018-08-19T17:39:04.148Z,21.10
2018-08-19T17:41:33.538Z,20.90
2018-08-19T17:44:05.005Z,20.80
2018-08-19T17:46:34.398Z,20.80
2018-08-19T17:49:03.638Z,20.70
2018-08-19T17:51:34.145Z,20.60
2018-08-19T17:54:08.159Z,20.50
2018-08-19T17:56:37.539Z,20.50
2018-08-19T17:59:06.721Z,20.50
2018-08-19T18:01:41.034Z,20.50
2018-08-19T18:04:10.285Z,20.60
2018-08-19T18:06:40.095Z,20.50
2018-08-19T18:11:41.148Z,20.40
2018-08-19T18:14:15.434Z,20.30
2018-08-19T18:16:47.182Z,20.20
2018-08-19T18:19:25.263Z,20.00
2018-08-19T18:21:55.702Z,19.60
2018-08-19T18:24:26.172Z,19.50
2018-08-19T18:26:56.268Z,19.40
2018-08-19T18:29:36.080Z,19.60
2018-08-19T18:32:13.175Z,19.50
2018-08-19T18:34:42.591Z,19.50
2018-08-19T18:37:12.086Z,19.50
2018-08-19T18:39:44.586Z,19.30
2018-08-19T18:42:22.784Z,19.30
2018-08-19T18:44:52.396Z,19.10
2018-08-19T18:47:21.772Z,19.00
2018-08-19T18:49:50.969Z,19.00
2018-08-19T18:52:20.345Z,19.00
2018-08-19T18:54:49.760Z,19.00
2018-08-19T18:57:18.926Z,18.90
2018-08-19T18:59:48.172Z,18.80
2018-08-19T19:02:17.634Z,18.80
2018-08-19T19:04:47.130Z,18.70
2018-08-19T19:07:16.700Z,18.70
2018-08-19T19:09:49.249Z,18.70
2018-08-19T19:12:21.159Z,18.50
2018-08-19T19:14:50.934Z,18.30
2018-08-19T19:17:20.350Z,18.30
2018-08-19T19:19:50.549Z,18.40
2018-08-19T19:22:20.066Z,18.40
2018-08-19T19:24:52.134Z,18.30
2018-08-19T19:27:22.183Z,18.30
2018-08-19T19:29:56.797Z,18.20
2018-08-19T19:32:26.276Z,18.20
2018-08-19T19:34:56.289Z,18.20
2018-08-19T19:37:26.385Z,18.00
2018-08-19T19:40:05.994Z,18.00
2018-08-19T19:42:36.673Z,18.00
2018-08-19T19:45:07.407Z,17.90
2018-08-19T19:47:36.882Z,17.70
2018-08-19T19:50:07.861Z,17.80
2018-08-19T19:52:39.000Z,17.70
2018-08-19T19:55:08.708Z,17.60
2018-08-19T19:57:38.606Z,17.60
2018-08-19T20:00:08.258Z,17.60
2018-08-19T20:02:37.813Z,17.60
2018-08-19T20:05:12.406Z,17.60
2018-08-19T20:07:43.223Z,17.60
2018-08-19T20:10:17.171Z,17.30
2018-08-19T20:12:46.804Z,17.30
2018-08-19T20:15:16.188Z,17.20
2018-08-19T20:17:45.763Z,17.30
2018-08-19T20:20:15.611Z,17.30
2018-08-19T20:22:44.975Z,17.20
2018-08-19T20:25:14.368Z,17.00
2018-08-19T20:27:43.838Z,17.00
2018-08-19T20:30:13.823Z,17.10
2018-08-19T20:32:43.562Z,17.10
2018-08-19T20:35:12.765Z,17.10
2018-08-19T20:37:41.945Z,17.00
2018-08-19T20:40:11.711Z,16.70
2018-08-19T20:42:47.123Z,16.50
2018-08-19T20:45:16.325Z,16.50
2018-08-19T20:47:47.396Z,16.60
2018-08-19T20:50:20.049Z,16.80
2018-08-19T20:58:16.924Z,16.80
2018-08-19T21:00:49.105Z,16.70
2018-08-19T21:03:20.788Z,16.50
2018-08-19T21:05:51.740Z,16.70
2018-08-19T21:08:21.587Z,16.60
2018-08-19T21:10:51.040Z,16.60
2018-08-19T21:13:22.334Z,16.50
2018-08-19T21:15:53.994Z,16.50
2018-08-19T21:18:23.451Z,16.40
2018-08-19T21:20:53.192Z,16.40
2018-08-19T21:23:22.973Z,16.40
2018-08-19T21:25:57.342Z,16.30
2018-08-19T21:28:26.764Z,16.10
2018-08-19T21:30:56.100Z,16.00
2018-08-19T21:33:25.353Z,16.00
2018-08-19T21:35:55.926Z,16.00
2018-08-19T21:38:25.258Z,16.00
2018-08-19T21:40:55.947Z,16.00
2018-08-19T21:43:28.055Z,16.10
2018-08-19T21:45:57.133Z,16.10
2018-08-19T21:48:26.398Z,16.20
2018-08-19T21:50:56.140Z,16.20
2018-08-19T21:53:25.220Z,16.00
2018-08-19T21:55:54.423Z,16.00
2018-08-19T21:58:23.733Z,16.00
2018-08-19T22:01:00.508Z,16.00
2018-08-19T22:03:34.915Z,16.00
2018-08-19T22:06:06.243Z,15.90
2018-08-19T22:08:35.526Z,15.80
2018-08-19T22:11:05.025Z,15.60
2018-08-19T22:13:34.279Z,15.60
2018-08-19T22:16:03.583Z,15.70
2018-08-19T22:18:32.816Z,15.80
2018-08-19T22:21:11.407Z,15.70
2018-08-19T22:23:42.657Z,15.50
2018-08-19T22:26:13.198Z,15.50
2018-08-19T22:28:42.733Z,15.60
2018-08-19T22:31:23.635Z,15.60
2018-08-19T22:33:56.027Z,15.60
2018-08-19T22:36:25.196Z,15.60
2018-08-19T22:38:55.370Z,15.50
2018-08-19T22:41:26.122Z,15.30
2018-08-19T22:43:56.014Z,15.20
2018-08-19T22:46:25.813Z,15.10
2018-08-19T22:48:55.529Z,15.10
2018-08-19T22:51:25.014Z,15.20
2018-08-19T22:53:55.386Z,15.30
2018-08-19T22:56:24.740Z,15.30
2018-08-19T22:58:54.649Z,15.00
2018-08-19T23:01:27.140Z,14.90
2018-08-19T23:04:02.286Z,15.00
2018-08-19T23:06:32.130Z,15.10
2018-08-19T23:09:01.820Z,15.00
2018-08-19T23:11:36.716Z,14.80
2018-08-19T23:14:17.108Z,14.80
2018-08-19T23:16:46.401Z,14.90
2018-08-19T23:19:15.595Z,14.80
2018-08-19T23:21:44.751Z,14.80
2018-08-19T23:24:14.301Z,14.70
2018-08-19T23:26:43.515Z,14.70
2018-08-19T23:29:12.656Z,14.70
2018-08-19T23:31:41.932Z,14.70
2018-08-19T23:34:11.059Z,14.70
2018-08-19T23:36:40.871Z,14.80
2018-08-19T23:39:10.631Z,14.80
2018-08-19T23:41:39.906Z,14.70
2018-08-19T23:44:09.563Z,14.50
2018-08-19T23:46:39.650Z,14.60
2018-08-19T23:49:08.686Z,14.60
2018-08-19T23:51:37.727Z,14.70
2018-08-19T23:54:06.808Z,14.60
2018-08-19T23:56:35.966Z,14.60
2018-08-19T23:59:05.055Z,14.50
